createdAt,value
2018-03-14T00:00:09.958Z,23.40
2018-03-14T00:01:09.911Z,22.00
2018-03-14T00:02:09.884Z,23.00
2018-03-14T00:03:09.809Z,26.00
2018-03-14T00:04:09.761Z,20.30
2018-03-14T00:05:09.710Z,34.00
2018-03-14T00:06:09.657Z,28.90
2018-03-14T00:07:09.633Z,24.60
2018-03-14T00:08:09.557Z,20.40
2018-03-14T00:09:09.510Z,23.50
2018-03-14T00:10:09.459Z,23.70
2018-03-14T00:11:09.407Z,20.20
2018-03-14T00:12:09.384Z,20.90
2018-03-14T00:13:09.308Z,23.00
2018-03-14T00:14:09.257Z,21.50
2018-03-14T00:15:09.211Z,26.60
2018-03-14T00:16:09.158Z,27.70
2018-03-14T00:17:09.130Z,23.90
2018-03-14T00:18:09.058Z,21.50
2018-03-14T00:19:09.008Z,20.90
2018-03-14T00:20:08.958Z,20.20
2018-03-14T00:21:08.905Z,16.90
2018-03-14T00:22:08.879Z,15.20
2018-03-14T00:23:08.806Z,14.60
2018-03-14T00:24:08.756Z,14.40
2018-03-14T00:25:08.710Z,15.30
2018-03-14T00:26:08.655Z,11.80
2018-03-14T00:27:08.630Z,12.30
2018-03-14T00:28:08.562Z,15.70
2018-03-14T00:29:08.508Z,18.40
2018-03-14T00:30:08.458Z,10.10
2018-03-14T00:31:08.406Z,13.60
2018-03-14T00:32:08.377Z,12.90
2018-03-14T00:33:08.308Z,14.20
2018-03-14T00:34:08.259Z,10.90
2018-03-14T00:35:08.205Z,11.60
2018-03-14T00:36:08.157Z,15.60
2018-03-14T00:37:08.130Z,11.40
2018-03-14T00:38:08.057Z,10.00
2018-03-14T00:39:08.006Z,9.50
2018-03-14T00:40:07.955Z,8.80
2018-03-14T00:41:07.905Z,8.10
2018-03-14T00:42:07.877Z,13.00
2018-03-14T00:43:07.807Z,8.50
2018-03-14T00:44:07.750Z,10.10
2018-03-14T00:45:07.703Z,9.90
2018-03-14T00:46:07.655Z,7.00
2018-03-14T00:47:07.626Z,7.90
2018-03-14T00:48:07.550Z,8.60
2018-03-14T00:49:07.502Z,8.30
2018-03-14T00:50:07.452Z,14.50
2018-03-14T00:51:07.400Z,11.90
2018-03-14T00:52:07.373Z,11.60
2018-03-14T00:53:07.302Z,9.50
2018-03-14T00:54:07.251Z,10.80
2018-03-14T00:55:07.225Z,8.80
2018-03-14T00:56:07.150Z,10.40
2018-03-14T00:57:07.126Z,8.00
2018-03-14T00:58:07.049Z,7.90
2018-03-14T00:59:07.004Z,9.00
2018-03-14T01:00:06.950Z,10.90
2018-03-14T01:01:06.898Z,9.40
2018-03-14T01:02:06.871Z,12.30
2018-03-14T01:03:06.802Z,10.60
2018-03-14T01:04:06.750Z,9.80
2018-03-14T01:05:06.694Z,9.40
2018-03-14T01:06:06.646Z,13.20
2018-03-14T01:07:06.619Z,9.30
2018-03-14T01:08:06.547Z,9.50
2018-03-14T01:09:06.493Z,11.20
2018-03-14T01:10:06.451Z,11.40
2018-03-14T01:11:06.403Z,11.00
2018-03-14T01:12:06.375Z,8.20
2018-03-14T01:13:06.297Z,9.40
2018-03-14T01:14:06.244Z,9.90
2018-03-14T01:15:06.196Z,12.40
2018-03-14T01:16:06.148Z,11.70
2018-03-14T01:17:06.117Z,10.40
2018-03-14T01:18:06.051Z,10.40
2018-03-14T01:19:05.994Z,13.40
2018-03-14T01:20:05.945Z,13.50
2018-03-14T01:21:05.896Z,11.60
2018-03-14T01:22:05.879Z,14.00
2018-03-14T01:23:05.792Z,12.30
2018-03-14T01:24:05.746Z,16.50
2018-03-14T01:25:05.691Z,12.50
2018-03-14T01:26:05.645Z,11.40
2018-03-14T01:27:05.593Z,11.90
2018-03-14T01:28:05.566Z,10.80
2018-03-14T01:29:05.493Z,12.00
2018-03-14T01:30:05.439Z,12.90
2018-03-14T01:31:05.396Z,13.90
2018-03-14T01:32:05.342Z,11.40
2018-03-14T01:33:05.312Z,14.70
2018-03-14T01:34:05.243Z,14.30
2018-03-14T01:35:05.187Z,13.00
2018-03-14T01:36:05.139Z,15.20
2018-03-14T01:37:05.089Z,17.00
2018-03-14T01:38:05.064Z,13.60
2018-03-14T01:39:04.987Z,15.20
2018-03-14T01:40:04.939Z,16.00
2018-03-14T01:41:04.889Z,13.00
2018-03-14T01:42:04.838Z,16.00
2018-03-14T01:43:04.812Z,16.80
2018-03-14T01:44:04.739Z,13.60
2018-03-14T01:45:04.686Z,16.00
2018-03-14T01:46:04.638Z,14.30
2018-03-14T01:47:04.586Z,15.60
2018-03-14T01:48:04.564Z,14.00
2018-03-14T01:49:04.489Z,13.80
2018-03-14T01:50:04.434Z,17.20
2018-03-14T01:51:04.388Z,13.50
2018-03-14T01:52:04.337Z,14.90
2018-03-14T01:53:04.310Z,13.40
2018-03-14T01:54:04.234Z,15.10
2018-03-14T01:55:04.188Z,12.40
2018-03-14T01:56:04.137Z,14.80
2018-03-14T01:57:04.091Z,10.30
2018-03-14T01:58:04.071Z,9.20
2018-03-14T01:59:03.987Z,8.10
2018-03-14T02:00:03.936Z,11.20
2018-03-14T02:01:03.884Z,8.60
2018-03-14T02:02:03.840Z,7.50
2018-03-14T02:03:03.804Z,7.50
2018-03-14T02:04:03.734Z,7.30
2018-03-14T02:05:03.689Z,8.30
2018-03-14T02:06:03.634Z,7.50
2018-03-14T02:07:03.581Z,9.00
2018-03-14T02:08:03.559Z,8.70
2018-03-14T02:09:03.481Z,8.10
2018-03-14T02:10:03.434Z,7.80
2018-03-14T02:11:03.382Z,8.70
2018-03-14T02:12:03.338Z,7.50
2018-03-14T02:13:03.304Z,9.00
2018-03-14T02:14:03.227Z,6.40
2018-03-14T02:15:03.179Z,8.40
2018-03-14T02:16:03.131Z,8.10
2018-03-14T02:17:03.078Z,7.50
2018-03-14T02:18:03.047Z,9.00
2018-03-14T02:19:02.976Z,9.00
2018-03-14T02:20:02.923Z,10.80
2018-03-14T02:21:02.875Z,8.80
2018-03-14T02:22:02.826Z,9.40
2018-03-14T02:23:02.794Z,10.00
2018-03-14T02:24:02.724Z,10.40
2018-03-14T02:25:02.672Z,11.90
2018-03-14T02:26:02.620Z,8.90
2018-03-14T02:27:02.569Z,8.80
2018-03-14T02:28:02.546Z,9.00
2018-03-14T02:29:02.471Z,9.40
2018-03-14T02:30:02.419Z,13.10
2018-03-14T02:31:02.369Z,9.90
2018-03-14T02:32:02.341Z,11.30
2018-03-14T02:33:02.306Z,11.60
2018-03-14T02:34:02.215Z,11.80
2018-03-14T02:35:02.166Z,11.60
2018-03-14T02:36:02.115Z,9.10
2018-03-14T02:37:02.062Z,12.80
2018-03-14T02:38:02.037Z,10.40
2018-03-14T02:39:01.964Z,13.00
2018-03-14T02:40:01.917Z,11.10
2018-03-14T02:41:01.866Z,10.20
2018-03-14T02:42:01.811Z,13.90
2018-03-14T02:43:01.783Z,14.00
2018-03-14T02:44:01.710Z,9.00
2018-03-14T02:45:01.661Z,12.10
2018-03-14T02:46:01.609Z,10.90
2018-03-14T02:47:01.558Z,10.10
2018-03-14T02:48:01.532Z,10.10
2018-03-14T02:49:01.457Z,9.70
2018-03-14T02:50:01.409Z,9.50
2018-03-14T02:51:01.357Z,10.00
2018-03-14T02:52:01.307Z,7.70
2018-03-14T02:53:01.281Z,9.60
2018-03-14T02:54:01.206Z,8.30
2018-03-14T02:55:01.155Z,6.90
2018-03-14T02:56:01.152Z,8.30
2018-03-14T02:57:01.055Z,8.80
2018-03-14T02:58:01.036Z,7.70
2018-03-14T02:59:00.953Z,8.40
2018-03-14T03:00:00.904Z,10.20
2018-03-14T03:01:00.849Z,9.60
2018-03-14T03:02:00.801Z,9.30
2018-03-14T03:03:00.776Z,7.90
2018-03-14T03:04:00.704Z,9.30
2018-03-14T03:05:00.652Z,6.30
2018-03-14T03:06:00.601Z,6.20
2018-03-14T03:07:00.549Z,7.80
2018-03-14T03:08:00.521Z,6.60
2018-03-14T03:09:00.449Z,8.30
2018-03-14T03:10:00.399Z,8.10
2018-03-14T03:11:00.347Z,8.80
2018-03-14T03:12:00.301Z,7.00
2018-03-14T03:13:00.269Z,6.40
2018-03-14T03:14:00.198Z,7.00
2018-03-14T03:15:00.145Z,6.70
2018-03-14T03:16:00.096Z,6.80
2018-03-14T03:17:00.044Z,5.90
2018-03-14T03:18:00.021Z,6.30
2018-03-14T03:18:59.942Z,7.60
2018-03-14T03:19:59.893Z,7.80
2018-03-14T03:20:59.838Z,6.20
2018-03-14T03:21:59.791Z,7.30
2018-03-14T03:22:59.767Z,8.20
2018-03-14T03:23:59.691Z,7.90
2018-03-14T03:24:59.636Z,7.80
2018-03-14T03:25:59.589Z,6.90
2018-03-14T03:26:59.537Z,5.90
2018-03-14T03:27:59.512Z,6.80
2018-03-14T03:28:59.437Z,5.90
2018-03-14T03:29:59.389Z,7.20
2018-03-14T03:30:59.341Z,6.90
2018-03-14T03:31:59.286Z,8.50
2018-03-14T03:32:59.258Z,7.10
2018-03-14T03:33:59.183Z,6.00
2018-03-14T03:34:59.134Z,7.10
2018-03-14T03:35:59.082Z,5.90
2018-03-14T03:36:59.030Z,6.30
2018-03-14T03:37:59.006Z,5.60
2018-03-14T03:38:58.932Z,5.90
2018-03-14T03:39:58.881Z,5.20
2018-03-14T03:40:58.834Z,6.70
2018-03-14T03:41:58.779Z,6.50
2018-03-14T03:42:58.757Z,7.70
2018-03-14T03:43:58.679Z,7.00
2018-03-14T03:44:58.632Z,5.60
2018-03-14T03:45:58.579Z,5.90
2018-03-14T03:46:58.527Z,6.00
2018-03-14T03:47:58.496Z,6.60
2018-03-14T03:48:58.422Z,5.90
2018-03-14T03:49:58.372Z,5.50
2018-03-14T03:50:58.323Z,5.10
2018-03-14T03:51:58.272Z,5.50
2018-03-14T03:52:58.245Z,5.20
2018-03-14T03:53:58.175Z,5.60
2018-03-14T03:54:58.122Z,5.10
2018-03-14T03:55:58.073Z,5.60
2018-03-14T03:56:58.020Z,5.40
2018-03-14T03:57:57.993Z,6.30
2018-03-14T03:58:57.919Z,6.90
2018-03-14T03:59:57.871Z,7.10
2018-03-14T04:00:57.815Z,7.20
2018-03-14T04:01:57.772Z,7.80
2018-03-14T04:02:57.740Z,6.80
2018-03-14T04:03:57.666Z,6.50
2018-03-14T04:04:57.610Z,6.90
2018-03-14T04:05:57.563Z,7.40
2018-03-14T04:06:57.515Z,8.30
2018-03-14T04:07:57.487Z,8.30
2018-03-14T04:08:57.413Z,8.20
2018-03-14T04:09:57.366Z,8.20
2018-03-14T04:10:57.311Z,8.80
2018-03-14T04:11:57.262Z,7.40
2018-03-14T04:12:57.237Z,7.50
2018-03-14T04:13:57.163Z,7.70
2018-03-14T04:14:57.110Z,9.10
2018-03-14T04:15:57.059Z,8.80
2018-03-14T04:16:57.006Z,9.00
2018-03-14T04:17:56.960Z,9.20
2018-03-14T04:18:56.929Z,8.70
2018-03-14T04:19:56.859Z,9.50
2018-03-14T04:20:56.809Z,8.20
2018-03-14T04:21:56.754Z,9.90
2018-03-14T04:22:56.705Z,10.40
2018-03-14T04:23:56.732Z,9.70
2018-03-14T04:24:56.611Z,9.60
2018-03-14T04:25:56.556Z,9.80
2018-03-14T04:26:56.503Z,10.50
2018-03-14T04:27:56.453Z,9.60
2018-03-14T04:28:56.424Z,11.00
2018-03-14T04:29:56.354Z,11.00
2018-03-14T04:30:56.299Z,11.00
2018-03-14T04:31:56.251Z,9.90
2018-03-14T04:32:56.200Z,10.80
2018-03-14T04:33:56.173Z,12.30
2018-03-14T04:34:56.094Z,11.60
2018-03-14T04:35:56.048Z,11.40
2018-03-14T04:36:55.995Z,11.50
2018-03-14T04:37:55.945Z,10.30
2018-03-14T04:38:55.919Z,11.30
2018-03-14T04:39:55.849Z,10.70
2018-03-14T04:40:55.797Z,11.70
2018-03-14T04:41:55.746Z,12.30
2018-03-14T04:42:55.692Z,12.30
2018-03-14T04:43:55.666Z,13.20
2018-03-14T04:44:55.593Z,14.20
2018-03-14T04:45:55.542Z,12.60
2018-03-14T04:46:55.488Z,11.80
2018-03-14T04:47:55.438Z,11.60
2018-03-14T04:48:55.417Z,12.70
2018-03-14T04:49:55.340Z,12.80
2018-03-14T04:50:55.290Z,12.30
2018-03-14T04:51:55.239Z,13.20
2018-03-14T04:52:55.184Z,12.10
2018-03-14T04:53:55.163Z,15.00
2018-03-14T04:54:55.089Z,17.50
2018-03-14T04:55:55.040Z,14.70
2018-03-14T04:56:54.985Z,14.10
2018-03-14T04:57:54.938Z,14.00
2018-03-14T04:58:54.906Z,13.30
2018-03-14T04:59:54.834Z,11.80
2018-03-14T05:00:54.786Z,12.60
2018-03-14T05:01:54.736Z,13.90
2018-03-14T05:02:54.685Z,14.80
2018-03-14T05:03:54.657Z,12.20
2018-03-14T05:04:54.582Z,14.10
2018-03-14T05:05:54.531Z,14.30
2018-03-14T05:06:54.485Z,11.90
2018-03-14T05:07:54.434Z,12.70
2018-03-14T05:08:54.408Z,14.70
2018-03-14T05:09:54.334Z,12.00
2018-03-14T05:10:54.282Z,15.00
2018-03-14T05:11:54.232Z,13.20
2018-03-14T05:12:54.181Z,13.40
2018-03-14T05:13:54.163Z,14.10
2018-03-14T05:14:54.080Z,14.70
2018-03-14T05:15:54.030Z,12.50
2018-03-14T05:16:53.980Z,14.10
2018-03-14T05:17:53.931Z,13.70
2018-03-14T05:18:53.904Z,14.40
2018-03-14T05:19:53.830Z,14.20
2018-03-14T05:20:53.778Z,14.00
2018-03-14T05:21:53.729Z,14.00
2018-03-14T05:22:53.682Z,14.40
2018-03-14T05:23:53.648Z,15.90
2018-03-14T05:24:53.577Z,14.80
2018-03-14T05:25:53.526Z,14.60
2018-03-14T05:26:53.479Z,15.90
2018-03-14T05:27:53.426Z,15.00
2018-03-14T05:28:53.398Z,14.40
2018-03-14T05:29:53.329Z,15.50
2018-03-14T05:30:53.279Z,20.10
2018-03-14T05:31:53.224Z,17.10
2018-03-14T05:32:53.175Z,20.40
2018-03-14T05:33:53.147Z,18.00
2018-03-14T05:34:53.081Z,18.70
2018-03-14T05:35:53.023Z,16.50
2018-03-14T05:36:52.971Z,15.90
2018-03-14T05:37:52.924Z,19.10
2018-03-14T05:38:52.898Z,16.30
2018-03-14T05:39:52.829Z,17.10
2018-03-14T05:40:52.774Z,15.50
2018-03-14T05:41:52.721Z,18.40
2018-03-14T05:42:52.670Z,18.70
2018-03-14T05:43:52.644Z,18.80
2018-03-14T05:44:52.571Z,19.30
2018-03-14T05:45:52.521Z,19.10
2018-03-14T05:46:52.475Z,16.40
2018-03-14T05:47:52.423Z,20.70
2018-03-14T05:48:52.392Z,17.80
2018-03-14T05:49:52.321Z,18.90
2018-03-14T05:50:52.278Z,21.30
2018-03-14T05:51:52.220Z,16.20
2018-03-14T05:52:52.173Z,19.50
2018-03-14T05:53:52.144Z,21.10
2018-03-14T05:54:52.073Z,22.60
2018-03-14T05:55:52.020Z,18.40
2018-03-14T05:56:51.969Z,19.00
2018-03-14T05:57:51.919Z,14.30
2018-03-14T05:58:51.894Z,17.70
2018-03-14T05:59:51.818Z,20.30
2018-03-14T06:00:51.769Z,17.80
2018-03-14T06:01:51.719Z,13.90
2018-03-14T06:02:51.669Z,15.00
2018-03-14T06:03:51.641Z,15.90
2018-03-14T06:04:51.571Z,13.80
2018-03-14T06:05:51.526Z,14.50
2018-03-14T06:06:51.469Z,19.00
2018-03-14T06:07:51.419Z,15.10
2018-03-14T06:08:51.402Z,14.80
2018-03-14T06:09:51.320Z,15.20
2018-03-14T06:10:51.270Z,16.40
2018-03-14T06:11:51.221Z,17.60
2018-03-14T06:12:51.173Z,16.60
2018-03-14T06:13:51.143Z,15.00
2018-03-14T06:14:51.067Z,16.50
2018-03-14T06:15:51.022Z,16.90
2018-03-14T06:16:50.975Z,15.60
2018-03-14T06:17:50.920Z,17.30
2018-03-14T06:18:50.891Z,16.90
2018-03-14T06:19:50.819Z,16.00
2018-03-14T06:20:50.767Z,15.60
2018-03-14T06:21:50.720Z,19.30
2018-03-14T06:22:50.667Z,17.40
2018-03-14T06:23:50.639Z,16.80
2018-03-14T06:24:50.568Z,17.70
2018-03-14T06:25:50.516Z,16.30
2018-03-14T06:26:50.465Z,16.00
2018-03-14T06:27:50.418Z,16.60
2018-03-14T06:28:50.386Z,16.80
2018-03-14T06:29:50.351Z,16.00
2018-03-14T06:30:50.264Z,17.90
2018-03-14T06:31:50.216Z,16.90
2018-03-14T06:32:50.163Z,16.90
2018-03-14T06:33:50.142Z,13.50
2018-03-14T06:34:50.064Z,15.50
2018-03-14T06:35:50.016Z,17.00
2018-03-14T06:36:49.962Z,16.80
2018-03-14T06:37:49.913Z,14.40
2018-03-14T06:40:21.446Z,14.00
2018-03-14T06:41:21.371Z,14.60
2018-03-14T06:42:21.328Z,13.40
2018-03-14T06:43:21.271Z,12.90
2018-03-14T06:44:21.243Z,13.30
2018-03-14T06:45:21.172Z,14.30
2018-03-14T06:46:21.123Z,12.60
2018-03-14T06:47:21.067Z,13.60
2018-03-14T06:48:21.020Z,12.50
2018-03-14T06:49:20.990Z,15.70
2018-03-14T06:50:20.920Z,14.70
2018-03-14T06:51:20.879Z,13.50
2018-03-14T06:52:20.817Z,11.90
2018-03-14T06:53:20.766Z,14.60
2018-03-14T06:54:20.740Z,13.60
2018-03-14T06:55:20.662Z,16.30
2018-03-14T06:56:20.613Z,14.40
2018-03-14T06:57:20.563Z,17.30
2018-03-14T06:58:20.513Z,17.30
2018-03-14T06:59:20.492Z,14.20
2018-03-14T07:00:20.415Z,15.20
2018-03-14T07:01:20.362Z,14.60
2018-03-14T07:02:20.312Z,15.30
2018-03-14T07:03:20.261Z,15.00
2018-03-14T07:04:20.235Z,14.60
2018-03-14T07:05:20.160Z,16.60
2018-03-14T07:06:20.110Z,15.20
2018-03-14T07:07:20.059Z,17.90
2018-03-14T07:08:20.011Z,18.20
2018-03-14T07:09:19.987Z,16.90
2018-03-14T07:10:19.910Z,15.00
2018-03-14T07:11:19.858Z,16.90
2018-03-14T07:12:19.813Z,14.30
2018-03-14T07:13:19.757Z,14.50
2018-03-14T07:14:19.747Z,15.80
2018-03-14T07:15:19.658Z,15.40
2018-03-14T07:16:19.606Z,18.00
2018-03-14T07:17:19.556Z,16.00
2018-03-14T07:18:19.509Z,17.00
2018-03-14T07:19:19.456Z,16.10
2018-03-14T07:20:19.427Z,16.50
2018-03-14T07:21:19.356Z,16.30
2018-03-14T07:22:19.309Z,15.40
2018-03-14T07:23:19.257Z,16.40
2018-03-14T07:24:19.206Z,16.80
2018-03-14T07:25:19.181Z,14.80
2018-03-14T07:26:19.109Z,18.30
2018-03-14T07:27:19.055Z,16.70
2018-03-14T07:28:19.005Z,16.40
2018-03-14T07:29:18.958Z,15.60
2018-03-14T07:30:18.927Z,15.40
2018-03-14T07:31:18.857Z,17.10
2018-03-14T07:32:18.805Z,17.80
2018-03-14T07:33:18.757Z,16.10
2018-03-14T07:34:18.711Z,13.10
2018-03-14T07:35:18.680Z,15.00
2018-03-14T07:36:18.605Z,14.80
2018-03-14T07:37:18.557Z,17.40
2018-03-14T07:38:18.509Z,17.10
2018-03-14T07:39:18.459Z,13.90
2018-03-14T07:40:18.434Z,15.20
2018-03-14T07:41:18.357Z,15.40
2018-03-14T07:42:18.307Z,14.20
2018-03-14T07:43:18.257Z,16.00
2018-03-14T07:44:18.206Z,14.60
2018-03-14T07:45:18.182Z,14.30
2018-03-14T07:46:18.109Z,14.10
2018-03-14T07:47:18.058Z,16.40
2018-03-14T07:48:18.009Z,14.20
2018-03-14T07:49:17.964Z,14.30
2018-03-14T07:50:17.933Z,13.00
2018-03-14T07:51:17.860Z,14.90
2018-03-14T07:52:17.808Z,14.60
2018-03-14T07:53:17.764Z,12.50
2018-03-14T07:54:17.713Z,14.20
2018-03-14T07:55:17.687Z,14.30
2018-03-14T07:56:17.609Z,12.40
2018-03-14T07:57:17.565Z,12.70
2018-03-14T07:58:17.517Z,12.90
2018-03-14T07:59:17.464Z,14.80
2018-03-14T08:00:17.439Z,14.00
2018-03-14T08:01:17.366Z,12.50
2018-03-14T08:02:17.316Z,14.70
2018-03-14T08:03:17.264Z,12.20
2018-03-14T08:04:17.216Z,12.40
2018-03-14T08:05:17.188Z,11.60
2018-03-14T08:06:17.119Z,14.10
2018-03-14T08:07:17.071Z,12.70
2018-03-14T08:08:17.025Z,14.60
2018-03-14T08:09:16.968Z,12.80
2018-03-14T08:10:16.941Z,11.20
2018-03-14T08:11:16.873Z,11.20
2018-03-14T08:12:16.822Z,11.40
2018-03-14T08:13:16.771Z,13.20
2018-03-14T08:14:16.721Z,12.60
2018-03-14T08:15:16.695Z,10.90
2018-03-14T08:16:16.623Z,12.50
2018-03-14T08:17:16.618Z,10.20
2018-03-14T08:18:16.531Z,11.60
2018-03-14T08:19:16.478Z,12.70
2018-03-14T08:20:16.466Z,10.60
2018-03-14T08:21:16.376Z,10.10
2018-03-14T08:22:16.333Z,10.10
2018-03-14T08:23:16.285Z,12.50
2018-03-14T08:24:16.235Z,10.00
2018-03-14T08:25:16.205Z,8.60
2018-03-14T08:26:16.133Z,8.50
2018-03-14T08:27:16.085Z,10.60
2018-03-14T08:28:16.037Z,9.20
2018-03-14T08:29:15.991Z,8.70
2018-03-14T08:30:15.967Z,8.20
2018-03-14T08:31:15.889Z,11.10
2018-03-14T08:32:15.844Z,9.80
2018-03-14T08:33:15.791Z,9.60
2018-03-14T08:34:15.745Z,11.00
2018-03-14T08:35:15.693Z,11.60
2018-03-14T08:36:15.668Z,9.10
2018-03-14T08:37:15.630Z,9.80
2018-03-14T08:38:15.546Z,10.20
2018-03-14T08:39:15.498Z,9.50
2018-03-14T08:40:15.453Z,11.60
2018-03-14T08:41:15.424Z,9.40
2018-03-14T08:42:15.358Z,10.60
2018-03-14T08:43:15.303Z,11.00
2018-03-14T08:44:15.254Z,9.90
2018-03-14T08:45:15.208Z,10.50
2018-03-14T08:46:15.189Z,9.80
2018-03-14T08:47:15.110Z,11.10
2018-03-14T08:48:15.060Z,9.60
2018-03-14T08:49:15.009Z,7.70
2018-03-14T08:50:14.964Z,8.80
2018-03-14T08:51:14.934Z,9.60
2018-03-14T08:52:22.587Z,8.40
2018-03-14T08:53:14.818Z,9.50
2018-03-14T08:54:14.769Z,10.30
2018-03-14T08:55:14.715Z,9.40
2018-03-14T08:56:14.691Z,10.40
2018-03-14T08:57:14.621Z,9.30
2018-03-14T08:58:14.571Z,8.70
2018-03-14T08:59:14.522Z,11.80
2018-03-14T09:00:14.471Z,8.30
2018-03-14T09:01:14.448Z,9.40
2018-03-14T09:02:14.378Z,8.30
2018-03-14T09:03:14.328Z,9.90
2018-03-14T09:04:14.278Z,8.60
2018-03-14T09:05:14.236Z,9.70
2018-03-14T09:06:14.204Z,10.10
2018-03-14T09:07:14.131Z,7.80
2018-03-14T09:08:14.084Z,9.50
2018-03-14T09:09:14.040Z,6.70
2018-03-14T09:10:13.985Z,7.90
2018-03-14T09:11:14.009Z,7.70
2018-03-14T09:12:13.892Z,9.00
2018-03-14T09:13:13.846Z,9.70
2018-03-14T09:14:13.796Z,8.00
2018-03-14T09:15:13.745Z,6.50
2018-03-14T09:16:13.718Z,6.10
2018-03-14T09:17:13.651Z,9.10
2018-03-14T09:18:13.599Z,6.40
2018-03-14T09:19:13.548Z,7.40
2018-03-14T09:20:13.503Z,6.50
2018-03-14T09:21:13.477Z,6.80
2018-03-14T09:22:13.406Z,7.00
2018-03-14T09:23:13.352Z,6.70
2018-03-14T09:24:13.307Z,6.10
2018-03-14T09:25:13.263Z,7.90
2018-03-14T09:26:13.246Z,8.00
2018-03-14T09:27:13.164Z,7.50
2018-03-14T09:28:13.113Z,9.60
2018-03-14T09:29:13.066Z,11.00
2018-03-14T09:30:13.020Z,7.40
2018-03-14T09:31:12.995Z,7.10
2018-03-14T09:32:12.925Z,8.80
2018-03-14T09:33:12.901Z,9.80
2018-03-14T09:34:12.826Z,8.20
2018-03-14T09:35:12.783Z,8.80
2018-03-14T09:36:12.755Z,8.30
2018-03-14T09:37:12.684Z,6.80
2018-03-14T09:38:12.635Z,7.10
2018-03-14T09:39:12.587Z,7.70
2018-03-14T09:40:12.535Z,7.60
2018-03-14T09:41:12.509Z,9.50
2018-03-14T09:42:12.440Z,6.50
2018-03-14T09:43:12.389Z,5.70
2018-03-14T09:44:12.347Z,7.20
2018-03-14T09:45:12.316Z,6.70
2018-03-14T09:46:12.272Z,7.70
2018-03-14T09:47:12.199Z,7.50
2018-03-14T09:48:12.148Z,8.80
2018-03-14T09:49:12.102Z,6.90
2018-03-14T09:50:12.055Z,6.10
2018-03-14T09:51:12.028Z,7.20
2018-03-14T09:52:11.961Z,7.30
2018-03-14T09:53:11.908Z,7.60
2018-03-14T09:54:11.909Z,7.10
2018-03-14T09:55:11.844Z,7.00
2018-03-14T09:56:11.797Z,7.20
2018-03-14T09:57:11.731Z,8.20
2018-03-14T09:58:11.668Z,7.50
2018-03-14T09:59:11.622Z,6.70
2018-03-14T10:00:11.572Z,7.00
2018-03-14T10:01:11.549Z,6.70
2018-03-14T10:02:11.479Z,6.10
2018-03-14T10:03:11.426Z,7.80
2018-03-14T10:04:11.378Z,7.30
2018-03-14T10:05:11.333Z,7.50
2018-03-14T10:07:42.895Z,7.80
2018-03-14T10:08:42.819Z,7.10
2018-03-14T10:09:42.764Z,7.00
2018-03-14T10:10:42.718Z,7.40
2018-03-14T10:11:42.694Z,6.60
2018-03-14T10:12:42.623Z,7.40
2018-03-14T10:13:42.576Z,7.70
2018-03-14T10:14:42.534Z,6.20
2018-03-14T10:15:42.477Z,6.10
2018-03-14T10:16:42.450Z,6.40
2018-03-14T10:17:42.378Z,7.70
2018-03-14T10:18:42.332Z,6.70
2018-03-14T10:19:42.285Z,7.90
2018-03-14T10:20:42.237Z,7.20
2018-03-14T10:21:42.211Z,7.30
2018-03-14T10:22:42.142Z,7.20
2018-03-14T10:23:42.091Z,6.30
2018-03-14T10:24:42.042Z,7.20
2018-03-14T10:25:42.062Z,7.40
2018-03-14T10:26:41.976Z,6.60
2018-03-14T10:27:41.901Z,9.50
2018-03-14T10:28:41.853Z,7.70
2018-03-14T10:29:41.813Z,8.60
2018-03-14T10:30:41.760Z,10.20
2018-03-14T10:31:41.729Z,10.40
2018-03-14T10:32:41.657Z,10.00
2018-03-14T10:33:41.618Z,9.50
2018-03-14T10:34:41.566Z,8.30
2018-03-14T10:35:41.516Z,7.80
2018-03-14T10:36:41.492Z,8.80
2018-03-14T10:37:41.420Z,7.70
2018-03-14T10:38:41.372Z,9.40
2018-03-14T10:39:41.325Z,7.70
2018-03-14T10:40:41.281Z,7.40
2018-03-14T10:41:41.255Z,7.00
2018-03-14T10:42:41.186Z,7.80
2018-03-14T10:43:41.135Z,7.30
2018-03-14T10:44:41.085Z,7.90
2018-03-14T10:45:41.042Z,8.40
2018-03-14T10:46:41.011Z,8.40
2018-03-14T10:47:40.950Z,9.20
2018-03-14T10:48:40.896Z,8.30
2018-03-14T10:49:40.851Z,7.90
2018-03-14T10:50:40.802Z,6.30
2018-03-14T10:51:40.784Z,8.80
2018-03-14T10:52:40.709Z,6.30
2018-03-14T10:53:40.671Z,7.30
2018-03-14T10:54:40.613Z,5.80
2018-03-14T10:55:40.567Z,6.80
2018-03-14T10:56:40.541Z,7.90
2018-03-14T10:57:40.473Z,5.70
2018-03-14T10:58:40.425Z,5.60
2018-03-14T10:59:40.378Z,4.40
2018-03-14T11:00:40.330Z,4.80
2018-03-14T11:01:40.305Z,6.00
2018-03-14T11:02:40.239Z,4.10
2018-03-14T11:03:40.198Z,6.40
2018-03-14T11:04:40.146Z,6.20
2018-03-14T11:05:40.095Z,4.70
2018-03-14T11:06:40.075Z,5.20
2018-03-14T11:07:40.003Z,4.60
2018-03-14T11:08:39.960Z,5.40
2018-03-14T11:09:39.911Z,5.20
2018-03-14T11:10:39.872Z,3.70
2018-03-14T11:11:39.854Z,4.30
2018-03-14T11:12:39.769Z,4.80
2018-03-14T11:13:39.725Z,5.80
2018-03-14T11:14:39.676Z,4.50
2018-03-14T11:15:39.632Z,4.20
2018-03-14T11:16:39.601Z,5.00
2018-03-14T11:17:39.562Z,4.30
2018-03-14T11:18:39.496Z,5.10
2018-03-14T11:19:39.440Z,4.40
2018-03-14T11:20:39.399Z,4.50
2018-03-14T11:21:39.373Z,6.20
2018-03-14T11:22:39.326Z,5.60
2018-03-14T11:23:39.258Z,5.30
2018-03-14T11:24:39.205Z,6.00
2018-03-14T11:25:39.161Z,4.90
2018-03-14T11:26:39.116Z,4.40
2018-03-14T11:27:39.089Z,5.40
2018-03-14T11:28:39.038Z,4.50
2018-03-14T11:29:38.971Z,4.80
2018-03-14T11:30:38.924Z,5.90
2018-03-14T11:31:38.877Z,4.70
2018-03-14T11:32:38.853Z,5.90
2018-03-14T11:33:38.783Z,6.10
2018-03-14T11:34:38.738Z,7.90
2018-03-14T11:35:38.690Z,5.00
2018-03-14T11:36:38.639Z,5.80
2018-03-14T11:37:38.621Z,6.10
2018-03-14T11:38:38.547Z,5.50
2018-03-14T11:39:38.500Z,7.20
2018-03-14T11:40:38.452Z,5.80
2018-03-14T11:41:38.403Z,6.20
2018-03-14T11:42:38.378Z,5.80
2018-03-14T11:43:38.308Z,6.50
2018-03-14T11:44:38.289Z,6.20
2018-03-14T11:45:38.215Z,5.50
2018-03-14T11:46:38.171Z,6.60
2018-03-14T11:47:38.144Z,5.70
2018-03-14T11:48:38.122Z,8.10
2018-03-14T11:49:38.025Z,7.70
2018-03-14T11:50:37.980Z,5.80
2018-03-14T11:51:37.928Z,5.90
2018-03-14T11:52:37.904Z,7.20
2018-03-14T11:53:37.833Z,5.40
2018-03-14T11:54:37.793Z,4.80
2018-03-14T11:55:37.741Z,4.80
2018-03-14T11:56:37.695Z,7.70
2018-03-14T11:57:37.667Z,6.10
2018-03-14T11:58:37.597Z,6.30
2018-03-14T11:59:37.556Z,6.40
2018-03-14T12:00:37.506Z,5.70
2018-03-14T12:01:37.458Z,5.50
2018-03-14T12:02:37.438Z,4.90
2018-03-14T12:03:37.366Z,6.20
2018-03-14T12:04:37.328Z,5.60
2018-03-14T12:05:37.267Z,5.80
2018-03-14T12:06:37.224Z,6.10
2018-03-14T12:07:37.201Z,5.70
2018-03-14T12:08:37.132Z,6.30
2018-03-14T12:09:37.082Z,5.90
2018-03-14T12:10:37.037Z,4.50
2018-03-14T12:11:36.990Z,6.40
2018-03-14T12:12:36.965Z,5.70
2018-03-14T12:13:36.895Z,6.30
2018-03-14T12:14:36.850Z,5.70
2018-03-14T12:15:36.802Z,5.60
2018-03-14T12:16:36.753Z,5.30
2018-03-14T12:17:36.728Z,5.10
2018-03-14T12:18:36.665Z,6.00
2018-03-14T12:19:36.613Z,5.30
2018-03-14T12:20:36.570Z,5.70
2018-03-14T12:21:36.521Z,4.80
2018-03-14T12:22:36.497Z,5.00
2018-03-14T12:23:36.447Z,4.40
2018-03-14T12:24:36.376Z,7.00
2018-03-14T12:25:36.336Z,6.30
2018-03-14T12:26:36.288Z,6.50
2018-03-14T12:27:36.262Z,5.50
2018-03-14T12:28:36.192Z,5.50
2018-03-14T12:29:36.149Z,6.30
2018-03-14T12:30:36.100Z,5.20
2018-03-14T12:31:36.050Z,5.40
2018-03-14T12:32:36.024Z,5.40
2018-03-14T12:33:35.959Z,5.80
2018-03-14T12:34:35.910Z,5.50
2018-03-14T12:35:35.862Z,5.30
2018-03-14T12:36:35.820Z,5.20
2018-03-14T12:37:35.792Z,5.20
2018-03-14T12:38:35.723Z,7.40
2018-03-14T12:39:35.677Z,5.90
2018-03-14T12:40:42.824Z,5.10
2018-03-14T12:41:35.583Z,5.90
2018-03-14T12:42:35.560Z,5.90
2018-03-14T12:43:35.489Z,5.80
2018-03-14T12:44:35.440Z,7.10
2018-03-14T12:45:35.397Z,5.10
2018-03-14T12:46:35.347Z,6.80
2018-03-14T12:47:35.322Z,6.30
2018-03-14T12:48:35.257Z,5.30
2018-03-14T12:49:35.211Z,4.90
2018-03-14T12:50:35.161Z,6.10
2018-03-14T12:51:35.117Z,5.60
2018-03-14T12:52:35.091Z,6.20
2018-03-14T12:53:35.020Z,5.00
2018-03-14T12:54:34.974Z,6.40
2018-03-14T12:55:34.927Z,6.80
2018-03-14T12:56:34.883Z,6.20
2018-03-14T12:57:34.859Z,5.90
2018-03-14T12:58:34.791Z,6.60
2018-03-14T12:59:34.742Z,5.20
2018-03-14T13:00:34.698Z,5.00
2018-03-14T13:01:34.646Z,6.40
2018-03-14T13:02:34.624Z,6.20
2018-03-14T13:03:34.555Z,6.10
2018-03-14T13:04:34.507Z,6.60
2018-03-14T13:05:34.461Z,5.90
2018-03-14T13:06:34.412Z,6.10
2018-03-14T13:07:34.389Z,8.10
2018-03-14T13:08:34.322Z,6.00